.
WxDataArchive / Data Records for 2009-12-18
2009-12-17 December 2009 2009-12-19

Data Records for Friday, 18 December 2009

Time	Temp	Chill	HIndex	Humid	Dewpt	 Wind 	HiWind	WindDir	Rain 	Barom 
-----	----	-----	------	-----	-----	------	------	-------	-----	----- 
00:00	32.9	32.9	32.9	67	23.2	0	2	90	0.00	30.157 
00:05	32.9	32.9	32.9	67	23.2	0	1	90	0.00	30.157 
00:10	32.9	32.9	32.9	67	23.2	0	2	90	0.00	30.157 
00:15	32.9	32.9	32.9	67	23.2	0	1	90	0.00	30.148 
00:20	32.9	32.9	32.9	68	23.5	0	2	90	0.00	30.148 
00:25	32.8	32.8	32.8	68	23.4	0	1	90	0.00	30.148 
00:30	32.8	32.8	32.8	68	23.4	0	2	90	0.00	30.148 
00:35	32.8	32.8	32.8	67	23.1	0	2	90	0.00	30.148 
00:40	32.8	32.8	32.8	67	23.1	0	1	90	0.00	30.148 
00:45	32.9	32.9	32.9	67	23.2	0	2	112	0.00	30.142 
00:50	33.1	33.1	33.1	66	23.0	0	3	112	0.00	30.142 
00:55	33.1	33.1	33.1	66	23.0	0	2	135	0.00	30.142 
01:00	33.2	33.2	33.2	65	22.7	0	1	135	0.00	30.133 
01:05	33.2	33.2	33.2	65	22.7	0	2	135	0.00	30.133 
01:10	33.4	33.4	33.4	64	22.6	0	1	135	0.00	30.133 
01:15	33.4	33.4	33.4	64	22.6	0	2	135	0.00	30.129 
01:20	33.5	33.5	33.5	64	22.6	0	2	135	0.00	30.129 
01:25	33.5	33.5	33.5	64	22.6	0	1	135	0.00	30.129 
01:30	33.5	33.5	33.5	64	22.6	0	1	135	0.00	30.125 
01:35	33.5	33.5	33.5	64	22.6	0	1	135	0.00	30.125 
01:40	33.5	33.5	33.5	65	23.0	0	1	135	0.00	30.125 
01:45	33.4	33.4	33.4	65	22.9	0	0	---	0.00	30.119 
01:50	33.4	33.4	33.4	65	22.9	0	0	---	0.00	30.119 
01:55	33.4	33.4	33.4	65	22.9	0	0	---	0.00	30.119 
02:00	33.2	33.2	33.2	65	22.7	0	1	135	0.00	30.122 
02:05	33.2	33.2	33.2	66	23.1	0	0	---	0.00	30.122 
02:10	33.2	33.2	33.2	66	23.1	0	0	---	0.00	30.122 
02:15	33.1	33.1	33.1	66	23.0	0	0	---	0.00	30.120 
02:20	33.1	33.1	33.1	65	22.6	0	0	---	0.00	30.120 
02:25	33.1	33.1	33.1	65	22.6	0	1	135	0.00	30.120 
02:30	33.1	33.1	33.1	65	22.6	0	0	---	0.00	30.119 
02:35	33.1	33.1	33.1	67	23.4	0	0	---	0.00	30.119 
02:40	32.9	32.9	32.9	67	23.2	0	0	---	0.00	30.119 
02:45	32.9	32.9	32.9	68	23.5	0	0	---	0.00	30.122 
02:50	32.8	32.8	32.8	69	23.8	0	1	135	0.00	30.122 
02:55	32.8	32.8	32.8	69	23.8	0	0	---	0.00	30.122 
03:00	32.7	32.7	32.7	70	24.0	0	0	---	0.00	30.122 
03:05	32.5	32.5	32.5	70	23.8	0	0	---	0.00	30.122 
03:10	32.5	32.5	32.5	71	24.2	0	0	---	0.00	30.122 
03:15	32.4	32.4	32.4	72	24.4	0	2	135	0.00	30.117 
03:20	32.4	32.4	32.4	72	24.4	0	1	135	0.00	30.117 
03:25	32.4	32.4	32.4	72	24.4	0	1	135	0.00	30.117 
03:30	32.2	32.2	32.2	73	24.5	0	1	135	0.00	30.116 
03:35	32.2	32.2	32.2	73	24.5	0	2	135	0.00	30.116 
03:40	32.2	32.2	32.2	73	24.5	0	1	135	0.00	30.116 
03:45	32.2	32.2	32.2	74	24.9	1	2	135	0.00	30.113 
03:50	32.1	32.1	32.1	75	25.1	0	2	135	0.00	30.113 
03:55	32.1	32.1	32.1	75	25.1	0	1	135	0.00	30.113 
04:00	31.9	31.9	31.9	75	24.9	0	2	135	0.00	30.103 
04:05	32.1	32.1	32.1	75	25.1	0	2	135	0.00	30.103 
04:10	31.9	31.9	31.9	75	24.9	0	1	135	0.00	30.103 
04:15	31.9	31.9	31.9	75	24.9	0	1	135	0.00	30.098 
04:20	31.9	31.9	31.9	74	24.6	0	0	---	0.00	30.098 
04:25	31.9	31.9	31.9	75	24.9	0	0	---	0.00	30.098 
04:30	31.9	31.9	31.9	75	24.9	0	0	---	0.00	30.088 
04:35	31.8	31.8	31.8	75	24.8	0	0	---	0.00	30.088 
04:40	31.8	31.8	31.8	75	24.8	0	1	135	0.00	30.088 
04:45	31.8	31.8	31.8	75	24.8	0	0	---	0.00	30.087 
04:50	31.6	31.6	31.6	76	24.9	0	1	135	0.00	30.087 
04:55	31.6	31.6	31.6	76	24.9	0	0	---	0.00	30.087 
05:00	31.5	31.5	31.5	77	25.1	0	0	---	0.00	30.086 
05:05	31.5	31.5	31.5	77	25.1	0	0	---	0.00	30.086 
05:10	31.5	31.5	31.5	77	25.1	0	0	---	0.00	30.086 
05:15	31.3	31.3	31.3	77	24.9	0	2	135	0.00	30.087 
05:20	31.3	31.3	31.3	77	24.9	0	2	135	0.00	30.087 
05:25	31.5	31.5	31.5	77	25.1	1	2	135	0.00	30.087 
05:30	31.5	31.5	31.5	77	25.1	0	3	135	0.00	30.076 
05:35	31.3	31.3	31.3	77	24.9	1	2	135	0.00	30.076 
05:40	31.3	31.3	31.3	77	24.9	0	2	135	0.00	30.076 
05:45	31.3	31.3	31.3	77	24.9	0	0	---	0.00	30.078 
05:50	31.3	31.3	31.3	77	24.9	0	1	135	0.00	30.078 
05:55	31.3	31.3	31.3	77	24.9	0	3	135	0.00	30.078 
06:00	31.3	31.3	31.3	77	24.9	1	2	135	0.00	30.075 
06:05	31.3	31.3	31.3	77	24.9	1	2	135	0.00	30.075 
06:10	31.2	31.2	31.2	78	25.2	0	2	90	0.00	30.075 
06:15	31.2	31.2	31.2	78	25.2	0	1	90	0.00	30.080 
06:20	31.2	31.2	31.2	78	25.2	0	1	90	0.00	30.080 
06:25	31.2	31.2	31.2	78	25.2	0	1	90	0.00	30.080 
06:30	31.2	31.2	31.2	78	25.2	0	0	---	0.00	30.080 
06:35	31.0	31.0	31.0	79	25.3	0	0	---	0.00	30.080 
06:40	31.0	31.0	31.0	79	25.3	0	0	---	0.00	30.080 
06:45	31.0	31.0	31.0	79	25.3	0	1	90	0.00	30.070 
06:50	31.0	31.0	31.0	79	25.3	0	2	90	0.00	30.070 
06:55	31.0	31.0	31.0	79	25.3	0	0	---	0.00	30.070 
07:00	31.0	31.0	31.0	79	25.3	0	0	---	0.00	30.071 
07:05	31.0	31.0	31.0	78	25.0	0	0	---	0.00	30.071 
07:10	31.0	31.0	31.0	78	25.0	0	0	---	0.00	30.071 
07:15	31.0	31.0	31.0	78	25.0	0	1	90	0.00	30.069 
07:20	31.2	31.2	31.2	77	24.8	0	1	90	0.00	30.069 
07:25	31.2	31.2	31.2	77	24.8	0	2	90	0.00	30.069 
07:30	31.2	31.2	31.2	77	24.8	0	1	90	0.00	30.063 
07:35	31.2	31.2	31.2	77	24.8	0	1	90	0.00	30.063 
07:40	31.2	31.2	31.2	77	24.8	0	2	90	0.00	30.063 
07:45	31.3	31.3	31.3	77	24.9	0	1	90	0.00	30.057 
07:50	31.3	31.3	31.3	77	24.9	0	1	90	0.00	30.057 
07:55	31.3	31.3	31.3	77	24.9	0	2	90	0.00	30.057 
08:00	31.3	31.3	31.3	77	24.9	0	1	90	0.00	30.059 
08:05	31.3	31.3	31.3	77	24.9	0	1	90	0.00	30.059 
08:10	31.3	31.3	31.3	77	24.9	0	2	90	0.00	30.059 
08:15	31.2	31.2	31.2	77	24.8	0	2	90	0.00	30.056 
08:20	31.2	31.2	31.2	77	24.8	0	3	90	0.00	30.056 
08:25	31.2	31.2	31.2	77	24.8	0	3	90	0.00	30.056 
08:30	31.2	31.2	31.2	77	24.8	1	3	90	0.00	30.054 
08:35	31.2	31.2	31.2	77	24.8	1	3	90	0.00	30.054 
08:40	31.2	31.2	31.2	77	24.8	0	1	90	0.00	30.054 
08:45	31.2	31.2	31.2	77	24.8	0	2	90	0.00	30.051 
08:50	31.2	31.2	31.2	77	24.8	0	1	90	0.00	30.051 
08:55	31.2	31.2	31.2	77	24.8	1	2	90	0.00	30.051 
09:00	31.3	31.3	31.3	77	24.9	1	3	90	0.00	30.046 
09:05	31.3	31.3	31.3	77	24.9	1	2	90	0.00	30.046 
09:10	31.3	31.3	31.3	76	24.6	1	3	90	0.00	30.046 
09:15	31.5	31.5	31.5	77	25.1	1	2	90	0.00	30.041 
09:20	31.5	31.5	31.5	77	25.1	1	3	90	0.00	30.041 
09:25	31.5	31.5	31.5	76	24.8	1	3	90	0.00	30.041 
09:30	31.6	31.6	31.6	77	25.2	1	2	90	0.00	30.039 
09:35	31.6	31.6	31.6	77	25.2	1	2	90	0.00	30.039 
09:40	31.6	31.6	31.6	77	25.2	0	2	90	0.00	30.039 
09:45	31.8	31.8	31.8	77	25.4	1	2	90	0.00	30.038 
09:50	31.9	31.9	31.9	76	25.2	1	3	90	0.00	30.038 
09:55	31.9	31.9	31.9	76	25.2	1	3	90	0.00	30.038 
10:00	32.1	32.1	32.1	76	25.4	1	2	90	0.00	30.036 
10:05	32.2	32.2	32.2	76	25.5	1	4	90	0.00	30.036 
10:10	32.2	32.2	32.2	75	25.2	1	4	90	0.00	30.036 
10:15	32.4	32.4	32.4	75	25.4	2	3	90	0.00	30.034 
10:20	32.5	32.5	32.5	75	25.5	1	3	90	0.00	30.034 
10:25	32.7	32.7	32.7	75	25.7	1	2	90	0.00	30.034 
10:30	32.8	32.8	32.8	74	25.4	1	4	112	0.00	30.024 
10:35	32.8	32.8	32.8	74	25.4	2	4	135	0.00	30.024 
10:40	32.8	32.8	32.8	74	25.4	1	2	135	0.00	30.024 
10:45	32.8	32.8	32.8	74	25.4	1	3	135	0.00	30.023 
10:50	32.9	32.9	32.9	74	25.5	1	2	135	0.00	30.023 
10:55	32.9	32.9	32.9	74	25.5	1	3	135	0.00	30.023 
11:00	33.1	33.1	33.1	74	25.7	1	2	135	0.00	30.020 
11:05	33.1	33.1	33.1	74	25.7	0	2	135	0.00	30.020 
11:10	33.1	33.1	33.1	74	25.7	1	3	135	0.00	30.020 
11:15	33.2	33.2	33.2	73	25.5	1	3	135	0.00	30.009 
11:20	33.4	33.4	33.4	73	25.7	0	1	135	0.00	30.009 
11:25	33.5	33.5	33.5	73	25.8	1	3	135	0.00	30.009 
11:30	33.7	33.7	33.7	73	26.0	1	4	90	0.00	30.009 
11:35	33.7	33.7	33.7	73	26.0	1	4	90	0.00	30.009 
11:40	33.8	33.8	33.8	73	26.1	0	2	112	0.00	30.009 
11:45	33.8	33.8	33.8	73	26.1	1	5	112	0.00	30.005 
11:50	33.8	33.8	33.8	72	25.7	2	4	90	0.00	30.005 
11:55	33.8	33.8	33.8	72	25.7	2	4	90	0.00	30.005 
12:00	34.0	34.0	34.0	71	25.6	2	4	112	0.00	30.003 
12:05	34.1	34.1	34.1	72	26.0	1	3	112	0.00	30.003 
12:10	34.1	34.1	34.1	71	25.7	2	4	112	0.00	30.003 
12:15	34.3	34.3	34.3	71	25.9	2	4	90	0.00	29.989 
12:20	34.3	34.3	34.3	71	25.9	2	5	90	0.00	29.989 
12:25	34.4	34.4	34.4	71	26.0	1	3	90	0.00	29.989 
12:30	34.4	34.4	34.4	70	25.6	2	5	90	0.00	29.976 
12:35	34.4	34.4	34.4	69	25.3	2	6	112	0.00	29.976 
12:40	34.6	34.6	34.6	69	25.5	2	4	90	0.00	29.976 
12:45	34.6	34.6	34.6	70	25.8	1	4	90	0.00	29.971 
12:50	34.7	34.7	34.7	70	25.9	2	4	90	0.00	29.971 
12:55	34.7	34.7	34.7	70	25.9	1	4	90	0.00	29.971 
13:00	34.7	34.7	34.7	69	25.6	2	5	112	0.00	29.964 
13:05	34.9	34.9	34.9	70	26.1	1	4	112	0.00	29.964 
13:10	34.9	34.9	34.9	70	26.1	2	4	112	0.00	29.964 
13:15	34.9	34.9	34.9	70	26.1	2	4	90	0.00	29.957 
13:20	35.0	35.0	35.0	69	25.9	2	5	90	0.00	29.957 
13:25	35.0	35.0	35.0	69	25.9	2	5	68	0.00	29.957 
13:30	35.0	35.0	35.0	70	26.2	2	5	112	0.00	29.944 
13:35	35.0	35.0	35.0	70	26.2	1	3	112	0.00	29.944 
13:40	35.2	35.2	35.2	69	26.1	2	6	90	0.00	29.944 
13:45	35.2	35.2	35.2	70	26.4	2	6	90	0.00	29.936 
13:50	35.3	35.3	35.3	70	26.5	1	4	90	0.00	29.936 
13:55	35.3	35.3	35.3	69	26.2	1	5	112	0.00	29.936 
14:00	35.5	35.5	35.5	69	26.4	1	4	112	0.00	29.930 
14:05	35.6	35.6	35.6	69	26.4	1	3	90	0.00	29.930 
14:10	35.6	35.6	35.6	69	26.4	1	6	90	0.00	29.930 
14:15	35.8	35.8	35.8	69	26.6	1	5	112	0.00	29.926 
14:20	35.8	35.8	35.8	69	26.6	3	7	90	0.00	29.926 
14:25	35.8	35.8	35.8	69	26.6	2	4	90	0.00	29.926 
14:30	35.8	35.8	35.8	69	26.6	2	4	90	0.00	29.924 
14:35	35.8	35.8	35.8	68	26.3	2	5	90	0.00	29.924 
14:40	35.8	35.8	35.8	68	26.3	2	6	112	0.00	29.924 
14:45	35.8	35.8	35.8	67	25.9	1	4	90	0.00	29.922 
14:50	36.0	36.0	36.0	68	26.5	1	4	112	0.00	29.922 
14:55	36.0	36.0	36.0	66	25.8	3	7	90	0.00	29.922 
15:00	36.0	36.0	36.0	66	25.8	1	4	90	0.00	29.917 
15:05	36.2	36.2	36.2	66	26.0	3	6	90	0.00	29.917 
15:10	36.2	36.2	36.2	66	26.0	2	5	90	0.00	29.917 
15:15	36.2	36.2	36.2	66	26.0	2	6	112	0.00	29.915 
15:20	36.2	36.2	36.2	66	26.0	3	7	90	0.00	29.915 
15:25	36.2	36.2	36.2	67	26.3	2	7	68	0.00	29.915 
15:30	36.3	36.3	36.3	66	26.0	1	6	112	0.00	29.911 
15:35	36.3	36.3	36.3	66	26.0	2	7	112	0.00	29.911 
15:40	36.2	36.2	36.2	66	26.0	3	6	112	0.00	29.911 
15:45	36.2	36.2	36.2	66	26.0	3	9	112	0.00	29.909 
15:50	36.2	36.2	36.2	68	26.7	1	5	112	0.00	29.909 
15:55	36.0	36.0	36.0	69	26.8	1	5	112	0.00	29.909 
16:00	35.9	35.9	35.9	70	27.1	1	5	90	0.00	29.908 
16:05	35.8	35.8	35.8	70	27.0	1	2	90	0.00	29.908 
16:10	35.5	35.5	35.5	69	26.4	1	4	90	0.00	29.908 
16:15	35.3	35.3	35.3	70	26.5	2	5	112	0.00	29.910 
16:20	35.2	35.2	35.2	70	26.4	2	5	90	0.00	29.910 
16:25	35.2	35.2	35.2	70	26.4	1	4	112	0.00	29.910 
16:30	35.0	35.0	35.0	70	26.2	1	4	90	0.00	29.911 
16:35	34.9	34.9	34.9	70	26.1	2	6	112	0.00	29.911 
16:40	34.9	34.9	34.9	70	26.1	2	5	90	0.00	29.911 
16:45	34.7	34.7	34.7	71	26.3	1	3	112	0.00	29.911 
16:50	34.7	34.7	34.7	71	26.3	0	2	112	0.00	29.911 
16:55	34.6	34.6	34.6	72	26.5	1	3	112	0.00	29.911 
17:00	34.6	34.6	34.6	72	26.5	1	4	112	0.00	29.913 
17:05	34.4	34.4	34.4	72	26.3	1	2	112	0.00	29.913 
17:10	34.3	34.3	34.3	72	26.2	1	4	112	0.00	29.913 
17:15	34.3	34.3	34.3	71	25.9	1	4	112	0.00	29.917 
17:20	34.3	34.3	34.3	71	25.9	1	4	112	0.00	29.917 
17:25	34.1	34.1	34.1	71	25.7	1	3	112	0.00	29.917 
17:30	34.1	34.1	34.1	71	25.7	0	2	112	0.00	29.921 
17:35	34.1	34.1	34.1	71	25.7	0	3	112	0.00	29.921 
17:40	34.0	34.0	34.0	71	25.6	1	4	112	0.00	29.921 
17:45	34.1	34.1	34.1	70	25.4	1	4	112	0.00	29.916 
17:50	34.0	34.0	34.0	70	25.3	0	2	112	0.00	29.916 
17:55	34.0	34.0	34.0	71	25.6	0	2	112	0.00	29.916 
18:00	34.0	34.0	34.0	71	25.6	0	1	112	0.00	29.913 
18:05	33.8	33.8	33.8	71	25.4	0	3	112	0.00	29.913 
18:10	33.7	33.7	33.7	71	25.3	1	3	112	0.00	29.913 
18:15	33.7	33.7	33.7	71	25.3	1	3	112	0.00	29.910 
18:20	33.7	33.7	33.7	71	25.3	1	2	135	0.00	29.910 
18:25	33.5	33.5	33.5	71	25.1	0	2	135	0.00	29.910 
18:30	33.5	33.5	33.5	71	25.1	0	2	68	0.00	29.911 
18:35	33.5	33.5	33.5	71	25.1	1	3	68	0.00	29.911 
18:40	33.4	33.4	33.4	71	25.0	1	3	45	0.00	29.911 
18:45	33.4	33.4	33.4	71	25.0	0	2	0	0.00	29.909 
18:50	33.4	33.4	33.4	71	25.0	1	3	90	0.00	29.909 
18:55	33.2	33.2	33.2	71	24.8	1	4	135	0.00	29.909 
19:00	33.2	33.2	33.2	72	25.2	0	2	90	0.00	29.904 
19:05	33.1	33.1	33.1	72	25.1	0	3	90	0.00	29.904 
19:10	33.1	33.1	33.1	72	25.1	0	2	90	0.00	29.904 
19:15	32.9	32.9	32.9	72	24.9	0	2	90	0.00	29.904 
19:20	32.9	32.9	32.9	72	24.9	0	1	90	0.00	29.904 
19:25	32.9	32.9	32.9	72	24.9	0	2	90	0.00	29.904 
19:30	32.8	32.8	32.8	73	25.1	0	2	90	0.00	29.900 
19:35	32.8	32.8	32.8	73	25.1	1	3	90	0.00	29.900 
19:40	32.8	32.8	32.8	73	25.1	0	2	90	0.00	29.900 
19:45	32.7	32.7	32.7	73	25.0	1	3	90	0.00	29.898 
19:50	32.7	32.7	32.7	73	25.0	0	2	135	0.00	29.898 
19:55	32.7	32.7	32.7	73	25.0	0	3	135	0.00	29.898 
20:00	32.5	32.5	32.5	73	24.8	0	3	135	0.00	29.897 
20:05	32.5	32.5	32.5	74	25.2	0	3	135	0.00	29.897 
20:10	32.4	32.4	32.4	74	25.1	1	3	135	0.00	29.897 
20:15	32.4	32.4	32.4	74	25.1	1	5	112	0.00	29.897 
20:20	32.4	32.4	32.4	74	25.1	1	3	112	0.00	29.897 
20:25	32.2	32.2	32.2	74	24.9	1	5	112	0.00	29.897 
20:30	32.2	32.2	32.2	74	24.9	1	3	90	0.00	29.897 
20:35	32.2	32.2	32.2	74	24.9	1	3	90	0.00	29.897 
20:40	32.2	32.2	32.2	75	25.2	0	3	90	0.00	29.897 
20:45	32.1	32.1	32.1	75	25.1	0	2	90	0.00	29.897 
20:50	32.1	32.1	32.1	75	25.1	0	3	135	0.00	29.897 
20:55	32.1	32.1	32.1	75	25.1	0	2	135	0.00	29.897 
21:00	32.1	32.1	32.1	75	25.1	1	3	112	0.00	29.897 
21:05	32.1	32.1	32.1	75	25.1	1	2	112	0.00	29.897 
21:10	32.1	32.1	32.1	75	25.1	0	2	112	0.00	29.897 
21:15	32.1	32.1	32.1	75	25.1	1	4	112	0.00	29.896 
21:20	32.1	32.1	32.1	75	25.1	1	3	68	0.00	29.896 
21:25	32.1	32.1	32.1	75	25.1	1	4	90	0.00	29.896 
21:30	32.1	32.1	32.1	76	25.4	1	3	112	0.00	29.896 
21:35	31.9	31.9	31.9	76	25.2	0	2	112	0.00	29.896 
21:40	31.9	31.9	31.9	76	25.2	0	3	112	0.00	29.896 
21:45	31.8	31.8	31.8	76	25.1	1	4	90	0.00	29.893 
21:50	31.8	31.8	31.8	77	25.4	1	4	90	0.00	29.893 
21:55	31.6	31.6	31.6	77	25.2	1	4	112	0.00	29.893 
22:00	31.6	31.6	31.6	77	25.2	1	3	112	0.00	29.887 
22:05	31.5	31.5	31.5	78	25.4	1	4	158	0.00	29.887 
22:10	31.5	31.5	31.5	78	25.4	1	3	112	0.00	29.887 
22:15	31.5	31.5	31.5	78	25.4	1	3	112	0.00	29.885 
22:20	31.5	31.5	31.5	78	25.4	0	3	112	0.00	29.885 
22:25	31.3	31.3	31.3	78	25.3	0	2	68	0.00	29.885 
22:30	31.3	31.3	31.3	79	25.6	1	2	68	0.00	29.883 
22:35	31.3	31.3	31.3	79	25.6	1	3	90	0.00	29.883 
22:40	31.3	31.3	31.3	79	25.6	1	3	90	0.00	29.883 
22:45	31.3	31.3	31.3	79	25.6	0	2	90	0.00	29.883 
22:50	31.3	31.3	31.3	79	25.6	1	2	90	0.00	29.883 
22:55	31.3	31.3	31.3	79	25.6	0	1	90	0.00	29.883 
23:00	31.3	31.3	31.3	79	25.6	0	1	90	0.00	29.882 
23:05	31.2	31.2	31.2	79	25.5	0	2	90	0.00	29.882 
23:10	31.2	31.2	31.2	80	25.8	0	1	90	0.00	29.882 
23:15	31.2	31.2	31.2	80	25.8	0	1	90	0.00	29.880 
23:20	31.2	31.2	31.2	80	25.8	0	2	90	0.00	29.880 
23:25	31.2	31.2	31.2	80	25.8	0	2	68	0.00	29.880 
23:30	31.2	31.2	31.2	80	25.8	0	2	68	0.00	29.875 
23:35	31.2	31.2	31.2	80	25.8	0	3	112	0.00	29.875 
23:40	31.2	31.2	31.2	80	25.8	0	2	112	0.00	29.875 
23:45	31.3	31.3	31.3	80	25.9	1	2	22	0.00	29.867 
23:50	31.3	31.3	31.3	79	25.6	0	2	22	0.00	29.867 
23:55	31.5	31.5	31.5	79	25.8	1	3	45	0.00	29.867 

CoCoRaHS
IN-AL-39
A2 Web Hosting
Creative Commons License
GoDaddy
search engine by freefind advanced

loaded 2018-11-19 19:01:16 • last modified 2010-11-18 10:43:29
Privacy PolicyDisclaimer
• wx.awcolley.com is powered by PmWiki v.2002016 •
• all content (unless otherwise noted) © 2018 A W Colley